Time;durP1;ratioP1;P1;durP2;ratioP2;P2;SDS_P1;SDS_P2;PMS_P1;PMS_P2;Temp;Humidity;BMP_temperature;BMP_pressure;BME280_temperature;BME280_humidity;BME280_pressure;Samples;Min_cycle;Max_cycle;Signal;HPM_P1;HPM_P2
2021/03/05 00:00:55;;;;;;;50.60;35.80;;;9.60;99.90;;;;;;4972101;28;20027;-77
2021/03/05 00:03:21;;;;;;;46.08;34.28;;;9.60;99.90;;;;;;4950631;28;20027;-77
2021/03/05 00:05:47;;;;;;;42.17;36.38;;;9.70;99.90;;;;;;4969311;28;20066;-77
2021/03/05 00:08:15;;;;;;;46.90;34.95;;;9.70;99.90;;;;;;4969380;28;20026;-77
2021/03/05 00:10:43;;;;;;;46.90;37.38;;;9.80;99.90;;;;;;4975246;28;20061;-77
2021/03/05 00:13:09;;;;;;;42.08;34.90;;;9.90;99.90;;;;;;4972011;28;20026;-77
2021/03/05 00:15:37;;;;;;;52.25;34.92;;;9.80;99.90;;;;;;4967360;28;20027;-80
2021/03/05 00:18:04;;;;;;;47.55;36.55;;;9.90;99.90;;;;;;4964568;28;20027;-77
2021/03/05 00:20:32;;;;;;;44.20;36.30;;;9.90;99.90;;;;;;4972447;28;20023;-77
2021/03/05 00:22:59;;;;;;;46.38;38.50;;;9.80;99.90;;;;;;4970786;28;20041;-77
2021/03/05 00:25:25;;;;;;;47.05;37.28;;;9.80;99.90;;;;;;4965031;28;20087;-77
2021/03/05 00:28:30;;;;;;;43.45;37.33;;;9.90;99.90;;;;;;4973009;28;20079;-77
2021/03/05 00:30:56;;;;;;;40.15;35.13;;;9.90;99.90;;;;;;4968350;28;20031;-77
2021/03/05 00:33:22;;;;;;;48.28;37.45;;;9.90;99.90;;;;;;4970937;28;20110;-77
2021/03/05 00:35:48;;;;;;;49.47;36.10;;;9.90;99.90;;;;;;4968131;28;20027;-77
2021/03/05 00:38:14;;;;;;;49.92;39.10;;;9.90;99.90;;;;;;4977052;28;20050;-77
2021/03/05 00:40:40;;;;;;;46.35;37.88;;;9.90;99.90;;;;;;4976058;28;20089;-77
2021/03/05 00:43:05;;;;;;;41.10;35.35;;;9.90;99.90;;;;;;4968538;28;20071;-77
2021/03/05 00:45:31;;;;;;;46.55;38.70;;;9.90;99.90;;;;;;4963025;28;20082;-77
2021/03/05 00:47:57;;;;;;;45.17;37.38;;;9.90;99.90;;;;;;4970923;28;20027;-77
2021/03/05 00:50:23;;;;;;;45.35;35.78;;;9.90;99.90;;;;;;4971486;28;20114;-76
2021/03/05 00:52:51;;;;;;;43.65;37.45;;;10.00;99.90;;;;;;4975378;28;20027;-77
2021/03/05 00:55:16;;;;;;;48.03;37.30;;;9.90;99.90;;;;;;4972319;28;20023;-77
2021/03/05 00:57:42;;;;;;;44.30;37.63;;;10.00;99.90;;;;;;4969393;28;20035;-77
2021/03/05 01:00:12;;;;;;;45.28;38.20;;;10.10;99.90;;;;;;4982567;28;20023;-77
2021/03/05 01:02:37;;;;;;;49.92;39.08;;;10.10;99.90;;;;;;4954058;28;20035;-78
2021/03/05 01:05:08;;;;;;;45.13;36.75;;;10.00;99.90;;;;;;4964233;28;20023;-78
2021/03/05 01:07:36;;;;;;;41.83;35.28;;;10.10;99.90;;;;;;4965033;28;20497;-78
2021/03/05 01:10:05;;;;;;;48.28;37.00;;;10.10;99.90;;;;;;4967125;28;20035;-77
2021/03/05 01:12:30;;;;;;;40.25;35.30;;;10.10;99.90;;;;;;4966916;28;20041;-77
2021/03/05 01:14:56;;;;;;;45.05;34.63;;;10.10;99.90;;;;;;4968128;28;20083;-76
2021/03/05 01:17:22;;;;;;;44.22;35.88;;;10.10;99.90;;;;;;4968451;28;20406;-77
2021/03/05 01:19:48;;;;;;;48.60;37.55;;;10.10;99.90;;;;;;4979122;28;20034;-78
2021/03/05 01:22:14;;;;;;;44.33;36.22;;;10.20;99.90;;;;;;4970970;28;20031;-77
2021/03/05 01:24:41;;;;;;;39.28;35.05;;;10.30;99.90;;;;;;4979667;28;20552;-77
2021/03/05 01:27:08;;;;;;;40.67;33.58;;;10.40;99.90;;;;;;4974919;28;20119;-78
2021/03/05 01:29:34;;;;;;;42.33;34.20;;;10.40;99.90;;;;;;4976478;28;20504;-76
2021/03/05 01:32:00;;;;;;;38.13;32.90;;;10.50;99.90;;;;;;4964568;28;20039;-77
2021/03/05 01:34:27;;;;;;;39.42;32.88;;;10.50;99.90;;;;;;4975149;28;20082;-77
2021/03/05 01:36:56;;;;;;;50.35;35.47;;;10.50;99.90;;;;;;4964119;28;20020;-77
2021/03/05 01:39:22;;;;;;;41.08;35.10;;;10.50;99.90;;;;;;4965636;28;20544;-77
2021/03/05 01:41:48;;;;;;;43.22;32.72;;;10.50;99.90;;;;;;4977738;28;20034;-76
2021/03/05 01:44:15;;;;;;;40.45;34.92;;;10.40;99.90;;;;;;4964281;28;20158;-77
2021/03/05 01:46:41;;;;;;;41.85;32.85;;;10.40;99.90;;;;;;4971028;28;20023;-77
2021/03/05 01:49:11;;;;;;;34.15;30.45;;;10.40;99.90;;;;;;4963611;28;20110;-77
2021/03/05 01:51:38;;;;;;;36.67;32.53;;;10.40;99.90;;;;;;4967661;28;20090;-79
2021/03/05 01:54:05;;;;;;;37.58;30.38;;;10.40;99.90;;;;;;4969850;28;20023;-78
2021/03/05 01:56:42;;;;;;;38.03;31.92;;;10.40;99.90;;;;;;4968418;28;20497;-76
2021/03/05 01:59:11;;;;;;;37.92;31.83;;;10.40;99.90;;;;;;4964800;28;20037;-77
2021/03/05 02:01:37;;;;;;;37.53;30.75;;;10.30;99.90;;;;;;4975286;28;20026;-76
2021/03/05 02:04:11;;;;;;;38.60;31.13;;;10.40;99.90;;;;;;4968505;28;20393;-77
2021/03/05 02:06:38;;;;;;;35.72;29.35;;;10.40;99.90;;;;;;4957272;28;20183;-76
2021/03/05 02:09:05;;;;;;;36.75;30.98;;;10.50;99.90;;;;;;4984465;28;20027;-76
2021/03/05 02:11:31;;;;;;;33.85;29.77;;;10.50;99.90;;;;;;4970859;28;20295;-76
2021/03/05 02:14:00;;;;;;;36.60;28.63;;;10.60;99.90;;;;;;4968944;28;20038;-75
2021/03/05 02:16:35;;;;;;;38.72;32.22;;;10.50;99.90;;;;;;4970836;28;20120;-77
2021/03/05 02:19:15;;;;;;;34.40;29.35;;;10.50;99.90;;;;;;4940145;28;20037;-77
2021/03/05 02:21:53;;;;;;;31.95;27.92;;;10.50;99.90;;;;;;4963386;28;21067;-77
2021/03/05 02:24:30;;;;;;;34.35;28.27;;;10.40;99.90;;;;;;4982827;28;20031;-77
2021/03/05 02:27:13;;;;;;;39.30;28.17;;;10.40;99.90;;;;;;4965965;28;20053;-76
2021/03/05 02:30:09;;;;;;;33.75;28.15;;;10.40;99.90;;;;;;4964812;28;20027;-77
2021/03/05 02:32:55;;;;;;;37.58;27.90;;;10.30;99.90;;;;;;4960347;28;20034;-77
2021/03/05 02:35:26;;;;;;;39.78;29.73;;;10.30;99.90;;;;;;4963127;28;20082;-77
2021/03/05 02:37:54;;;;;;;35.17;28.45;;;10.30;99.90;;;;;;4962243;28;20103;-76
2021/03/05 02:40:32;;;;;;;36.55;29.80;;;10.30;99.90;;;;;;4965152;28;20033;-77
2021/03/05 02:43:02;;;;;;;32.17;27.50;;;10.30;99.90;;;;;;4970576;28;20027;-77
2021/03/05 02:45:35;;;;;;;37.25;30.17;;;10.30;99.90;;;;;;4965586;28;20023;-76
2021/03/05 02:48:23;;;;;;;30.75;25.58;;;10.30;99.90;;;;;;4967688;28;20060;-76
2021/03/05 02:50:54;;;;;;;34.33;26.55;;;10.30;99.90;;;;;;4967208;28;20047;-76
2021/03/05 02:53:24;;;;;;;34.00;26.08;;;10.30;99.90;;;;;;4967604;28;20045;-77
2021/03/05 02:55:54;;;;;;;32.95;26.80;;;10.30;99.90;;;;;;4969356;28;20109;-76
2021/03/05 02:58:22;;;;;;;39.13;27.55;;;10.30;99.90;;;;;;4969705;28;20033;-76
2021/03/05 03:00:51;;;;;;;35.40;27.33;;;10.30;99.90;;;;;;4957638;28;20020;-76
2021/03/05 03:03:22;;;;;;;34.53;26.23;;;10.30;99.90;;;;;;4965254;28;20050;-77
2021/03/05 03:05:51;;;;;;;38.80;30.52;;;10.30;99.90;;;;;;4964077;28;20038;-77
2021/03/05 03:08:18;;;;;;;38.55;26.63;;;10.30;99.90;;;;;;4967514;28;20031;-76
2021/03/05 03:10:47;;;;;;;39.92;26.67;;;10.30;99.90;;;;;;4961037;28;20047;-76
2021/03/05 03:13:14;;;;;;;36.38;26.55;;;10.40;99.90;;;;;;4953806;28;20031;-77
2021/03/05 03:15:41;;;;;;;36.90;27.75;;;10.30;99.90;;;;;;4965588;28;20401;-76
2021/03/05 03:18:11;;;;;;;33.22;27.45;;;10.30;99.90;;;;;;4956383;28;20054;-76
2021/03/05 03:20:38;;;;;;;31.65;27.45;;;10.40;99.90;;;;;;4968676;28;20047;-76
2021/03/05 03:23:05;;;;;;;32.78;27.23;;;10.50;99.90;;;;;;4964250;28;20035;-77
2021/03/05 03:25:31;;;;;;;31.95;27.15;;;10.40;99.90;;;;;;4969820;28;20077;-77
2021/03/05 03:27:57;;;;;;;31.77;26.42;;;10.50;99.90;;;;;;4961958;28;20122;-77
2021/03/05 03:30:24;;;;;;;29.38;25.60;;;10.50;99.90;;;;;;4968894;28;20061;-76
2021/03/05 03:32:51;;;;;;;35.08;26.67;;;10.60;99.90;;;;;;4963567;28;20031;-76
2021/03/05 03:35:17;;;;;;;33.47;29.48;;;10.60;99.90;;;;;;4973406;28;20239;-77
2021/03/05 03:37:43;;;;;;;32.72;27.52;;;10.70;99.90;;;;;;4974133;28;20030;-80
2021/03/05 03:40:18;;;;;;;32.08;25.92;;;10.70;99.90;;;;;;4970594;28;20031;-79
2021/03/05 03:42:48;;;;;;;37.67;27.45;;;10.80;99.90;;;;;;4975144;28;20110;-76
2021/03/05 03:45:18;;;;;;;34.30;27.98;;;10.80;99.90;;;;;;4974727;28;20035;-76
2021/03/05 03:47:44;;;;;;;35.03;27.92;;;10.80;99.90;;;;;;4977810;28;20109;-77
2021/03/05 03:50:18;;;;;;;33.53;26.73;;;10.70;99.90;;;;;;4969390;28;20015;-77
2021/03/05 03:53:06;;;;;;;34.33;25.55;;;10.70;99.90;;;;;;4972567;28;20675;-77
2021/03/05 03:55:32;;;;;;;31.70;25.92;;;10.80;99.90;;;;;;4967756;28;20047;-77
2021/03/05 03:58:00;;;;;;;29.13;25.55;;;10.80;99.90;;;;;;4972811;28;20067;-76
2021/03/05 04:00:27;;;;;;;31.73;27.98;;;10.80;99.90;;;;;;4972679;28;20397;-77
2021/03/05 04:02:55;;;;;;;32.55;25.88;;;10.90;99.90;;;;;;4966327;28;20031;-76
2021/03/05 04:05:25;;;;;;;38.40;27.65;;;10.90;99.90;;;;;;4972457;28;20154;-76
2021/03/05 04:07:51;;;;;;;30.30;26.17;;;10.90;99.90;;;;;;4987079;28;20030;-76
2021/03/05 04:10:19;;;;;;;35.40;27.67;;;10.90;99.90;;;;;;4983686;28;20118;-76
2021/03/05 04:12:51;;;;;;;32.30;27.30;;;10.90;99.90;;;;;;4978465;28;20569;-77
2021/03/05 04:15:18;;;;;;;36.60;28.08;;;10.90;99.90;;;;;;4969315;28;20031;-76
2021/03/05 04:17:48;;;;;;;33.03;27.13;;;10.90;99.90;;;;;;4971184;28;20027;-77
2021/03/05 04:20:16;;;;;;;35.60;29.20;;;10.90;99.90;;;;;;4952095;28;20550;-77
2021/03/05 04:22:43;;;;;;;35.03;30.52;;;10.90;99.90;;;;;;4974363;28;20034;-77
2021/03/05 04:25:15;;;;;;;35.78;28.77;;;10.90;99.90;;;;;;4977800;28;20042;-77
2021/03/05 04:27:41;;;;;;;33.83;28.25;;;11.00;99.90;;;;;;4976149;28;20038;-77
2021/03/05 04:30:08;;;;;;;35.28;30.02;;;11.00;99.90;;;;;;4974808;28;20124;-78
2021/03/05 04:32:34;;;;;;;35.72;28.98;;;11.00;99.90;;;;;;4974235;28;20035;-77
2021/03/05 04:35:00;;;;;;;33.55;28.58;;;11.10;99.90;;;;;;4969978;28;20031;-77
2021/03/05 04:37:26;;;;;;;31.02;27.70;;;11.10;99.90;;;;;;4972644;28;20125;-77
2021/03/05 04:39:52;;;;;;;39.92;29.30;;;11.00;99.90;;;;;;4976564;28;20036;-76
2021/03/05 04:43:16;;;;;;;;;;;;;;;;;;;;;
2021/03/05 04:46:49;;;;;;;34.50;27.98;;;11.00;99.90;;;;;;4959316;28;20439;-77
2021/03/05 04:49:57;;;;;;;36.05;28.98;;;11.10;99.90;;;;;;4901555;29;20043;-77
2021/03/05 04:52:23;;;;;;;31.98;28.45;;;11.20;99.90;;;;;;4965617;28;20035;-77
2021/03/05 04:54:49;;;;;;;33.83;27.20;;;11.10;99.90;;;;;;4974977;28;20032;-80
2021/03/05 04:57:15;;;;;;;40.33;29.20;;;11.10;99.90;;;;;;4976770;28;20023;-77
2021/03/05 04:59:41;;;;;;;34.75;28.08;;;11.10;99.90;;;;;;4973282;28;20023;-77
2021/03/05 05:02:07;;;;;;;29.13;25.25;;;11.10;99.90;;;;;;4968594;28;20066;-77
2021/03/05 05:04:33;;;;;;;32.95;26.67;;;11.10;99.90;;;;;;4972618;28;20477;-78
2021/03/05 05:06:59;;;;;;;39.03;28.30;;;11.10;99.90;;;;;;4975125;28;20500;-75
2021/03/05 05:09:25;;;;;;;32.20;27.58;;;11.10;99.90;;;;;;4973753;28;20023;-77
2021/03/05 05:11:50;;;;;;;33.40;27.35;;;11.10;99.90;;;;;;4966508;28;20062;-76
2021/03/05 05:14:16;;;;;;;33.63;28.27;;;11.20;99.90;;;;;;4968339;28;20081;-77
2021/03/05 05:16:42;;;;;;;38.67;27.60;;;11.20;99.90;;;;;;4969575;28;20485;-77
2021/03/05 05:19:08;;;;;;;32.88;26.35;;;11.20;99.90;;;;;;4974643;28;20038;-77
2021/03/05 05:21:34;;;;;;;33.40;25.38;;;11.10;99.90;;;;;;4976726;28;20490;-77
2021/03/05 05:24:00;;;;;;;32.47;24.83;;;11.10;99.90;;;;;;4958363;28;20039;-76
2021/03/05 05:26:26;;;;;;;28.67;24.55;;;11.10;99.90;;;;;;4958470;28;20028;-77
2021/03/05 05:28:52;;;;;;;35.42;27.20;;;11.10;99.90;;;;;;4974616;28;20031;-76
2021/03/05 05:31:18;;;;;;;38.92;28.25;;;11.10;99.90;;;;;;4968215;28;20023;-77
2021/03/05 05:33:44;;;;;;;31.42;26.52;;;11.00;99.90;;;;;;4968089;28;20030;-78
2021/03/05 05:36:10;;;;;;;33.40;26.50;;;11.00;99.90;;;;;;4973085;28;20041;-76
2021/03/05 05:38:42;;;;;;;37.78;27.55;;;11.10;99.90;;;;;;4963545;28;20015;-77
2021/03/05 05:41:08;;;;;;;;;;;11.00;99.90;;;;;;4960462;28;20035;-77
2021/03/05 05:43:34;;;;;;;34.53;28.27;;;11.00;99.90;;;;;;4969459;28;20276;-78
2021/03/05 05:46:06;;;;;;;49.40;26.90;;;11.00;99.90;;;;;;4968445;28;20027;-78
2021/03/05 05:48:35;;;;;;;33.03;29.45;;;10.90;99.90;;;;;;4975385;28;20034;-77
2021/03/05 05:51:02;;;;;;;34.75;29.67;;;10.90;99.90;;;;;;4976130;28;20037;-77
2021/03/05 05:53:33;;;;;;;33.55;28.70;;;10.90;99.90;;;;;;4971417;28;20046;-76
2021/03/05 05:56:02;;;;;;;29.30;26.38;;;11.00;99.90;;;;;;4971095;28;20054;-76
2021/03/05 05:58:28;;;;;;;37.92;27.85;;;11.10;99.90;;;;;;4975247;28;20022;-76
2021/03/05 06:00:58;;;;;;;31.95;26.77;;;11.10;99.90;;;;;;4975189;28;20034;-78
2021/03/05 06:03:28;;;;;;;35.80;28.23;;;11.00;99.90;;;;;;4964096;28;20026;-78
2021/03/05 06:05:57;;;;;;;30.08;26.77;;;11.10;99.90;;;;;;4971587;28;20019;-78
2021/03/05 06:08:23;;;;;;;32.35;26.60;;;11.10;99.90;;;;;;4968686;28;20026;-77
2021/03/05 06:10:52;;;;;;;27.08;24.15;;;11.10;99.90;;;;;;4970180;28;20035;-77
2021/03/05 06:13:18;;;;;;;29.70;26.55;;;11.10;99.90;;;;;;4967474;28;20028;-77
2021/03/05 06:15:44;;;;;;;33.05;27.27;;;11.10;99.90;;;;;;4955539;28;20114;-78
2021/03/05 06:18:29;;;;;;;37.25;26.05;;;11.10;99.90;;;;;;4950027;28;20065;-76
2021/03/05 06:20:55;;;;;;;29.38;23.65;;;11.10;99.90;;;;;;4956590;28;20474;-76
2021/03/05 06:23:21;;;;;;;30.45;24.42;;;11.10;99.90;;;;;;4964338;28;20027;-76
2021/03/05 06:25:47;;;;;;;34.47;26.70;;;11.10;99.90;;;;;;4971426;28;20027;-77
2021/03/05 06:28:17;;;;;;;34.38;26.35;;;11.10;99.90;;;;;;4964137;28;20019;-77
2021/03/05 06:30:47;;;;;;;35.28;25.05;;;11.20;99.90;;;;;;4968334;28;20023;-78
2021/03/05 06:33:30;;;;;;;31.13;25.65;;;11.20;99.90;;;;;;4977700;28;20006;-77
2021/03/05 06:36:15;;;;;;;32.05;24.42;;;11.30;99.90;;;;;;4974087;28;20081;-78
2021/03/05 06:38:43;;;;;;;37.35;26.40;;;11.30;99.90;;;;;;4965247;28;20047;-78
2021/03/05 06:41:19;;;;;;;34.03;27.23;;;11.30;99.90;;;;;;4963226;28;20031;-78
2021/03/05 06:43:47;;;;;;;34.65;26.13;;;11.30;99.90;;;;;;4972800;28;20023;-76
2021/03/05 06:46:30;;;;;;;33.25;25.92;;;11.40;99.90;;;;;;4968417;28;20073;-77
2021/03/05 06:48:57;;;;;;;35.05;26.20;;;11.30;99.90;;;;;;4969309;28;20110;-77
2021/03/05 06:51:24;;;;;;;29.75;25.75;;;11.40;99.90;;;;;;4970245;28;20026;-77
2021/03/05 06:54:01;;;;;;;31.38;26.25;;;11.40;99.90;;;;;;4966448;28;20033;-76
2021/03/05 06:56:29;;;;;;;35.72;26.80;;;11.50;99.90;;;;;;4971528;28;20018;-77
2021/03/05 06:59:06;;;;;;;35.45;25.20;;;11.60;99.90;;;;;;4964993;28;20039;-77
2021/03/05 07:01:47;;;;;;;33.50;25.15;;;11.60;99.90;;;;;;4960302;28;20433;-77
2021/03/05 07:04:18;;;;;;;32.13;25.48;;;11.60;99.90;;;;;;4952316;28;20027;-77
2021/03/05 07:06:45;;;;;;;31.60;25.67;;;11.60;99.90;;;;;;4964717;28;20109;-78
2021/03/05 07:09:27;;;;;;;31.45;25.65;;;11.60;99.90;;;;;;4957799;28;20031;-77
2021/03/05 07:11:55;;;;;;;30.00;26.80;;;11.60;99.90;;;;;;4966388;28;20477;-80
2021/03/05 07:14:29;;;;;;;30.02;25.77;;;11.60;99.90;;;;;;4954545;29;20043;-75
2021/03/05 07:16:56;;;;;;;31.45;24.98;;;11.70;99.90;;;;;;4954679;28;20039;-76
2021/03/05 07:19:26;;;;;;;31.48;25.30;;;11.80;99.90;;;;;;4957117;28;20020;-78
2021/03/05 07:21:52;;;;;;;29.13;23.45;;;11.90;99.90;;;;;;4957682;28;20030;-77
2021/03/05 07:24:24;;;;;;;32.15;25.05;;;12.00;99.90;;;;;;4962251;28;20453;-77
2021/03/05 07:26:57;;;;;;;29.17;25.80;;;12.10;99.90;;;;;;4968351;28;20098;-78
2021/03/05 07:29:27;;;;;;;33.63;24.42;;;12.10;99.90;;;;;;4964890;28;20030;-78
2021/03/05 07:32:20;;;;;;;29.33;22.80;;;12.30;99.90;;;;;;4967578;28;20142;-76
2021/03/05 07:34:59;;;;;;;30.45;25.00;;;12.40;99.90;;;;;;4953888;28;20256;-78
2021/03/05 07:37:36;;;;;;;29.83;26.63;;;12.50;99.90;;;;;;4971293;28;20086;-77
2021/03/05 07:40:08;;;;;;;31.15;26.77;;;12.50;99.90;;;;;;4967656;28;20054;-78
2021/03/05 07:42:34;;;;;;;30.92;25.13;;;12.50;99.90;;;;;;4969809;28;20388;-74
2021/03/05 07:45:02;;;;;;;28.75;24.42;;;12.60;99.90;;;;;;4978223;28;20031;-74
2021/03/05 07:47:31;;;;;;;34.50;25.73;;;12.70;99.90;;;;;;4967519;28;20250;-75
2021/03/05 07:50:02;;;;;;;29.27;24.83;;;12.60;99.90;;;;;;4962445;28;20082;-78
2021/03/05 07:52:28;;;;;;;26.15;19.35;;;12.70;99.90;;;;;;4960974;28;20501;-77
2021/03/05 07:54:54;;;;;;;33.72;25.75;;;12.70;99.90;;;;;;4955911;28;20035;-75
2021/03/05 07:57:20;;;;;;;27.20;24.38;;;12.80;99.90;;;;;;4967908;28;20031;-75
2021/03/05 07:59:51;;;;;;;30.15;26.42;;;12.90;99.90;;;;;;4955814;28;20046;-76
2021/03/05 08:02:23;;;;;;;30.83;25.65;;;13.00;99.90;;;;;;4959155;28;20035;-75
2021/03/05 08:04:50;;;;;;;35.45;26.92;;;12.90;99.90;;;;;;4953024;28;20039;-76
2021/03/05 08:07:17;;;;;;;32.88;26.60;;;13.00;99.90;;;;;;4947433;28;20060;-75
2021/03/05 08:09:43;;;;;;;34.55;27.33;;;12.90;99.90;;;;;;4955535;28;20478;-74
2021/03/05 08:15:08;;;;;;;35.33;24.88;;;12.80;99.90;;;;;;4963166;28;20023;-74
2021/03/05 08:17:35;;;;;;;38.50;28.23;;;12.80;99.90;;;;;;4962806;28;20078;-74
2021/03/05 08:20:02;;;;;;;36.88;27.30;;;12.90;99.90;;;;;;4938838;28;20046;-76
2021/03/05 08:22:31;;;;;;;31.10;26.33;;;12.90;99.90;;;;;;4960006;28;20031;-76
2021/03/05 08:25:25;;;;;;;34.95;25.70;;;12.90;99.90;;;;;;4971862;28;20478;-77
2021/03/05 08:27:51;;;;;;;30.55;27.17;;;12.90;99.90;;;;;;4964464;28;20154;-75
2021/03/05 08:30:19;;;;;;;33.97;27.02;;;12.80;99.90;;;;;;4966575;28;20649;-75
2021/03/05 08:32:46;;;;;;;34.63;26.13;;;12.70;99.90;;;;;;4965677;28;20078;-76
2021/03/05 08:35:18;;;;;;;30.75;26.45;;;12.80;99.90;;;;;;4957515;28;20438;-75
2021/03/05 08:38:03;;;;;;;31.85;27.33;;;12.90;99.90;;;;;;4965601;28;20498;-75
2021/03/05 08:40:34;;;;;;;36.70;25.90;;;12.90;99.90;;;;;;4960858;28;20031;-76
2021/03/05 08:43:18;;;;;;;28.30;24.63;;;12.90;99.90;;;;;;4946259;28;20023;-74
2021/03/05 08:45:54;;;;;;;36.97;26.17;;;13.00;99.90;;;;;;4956018;28;20034;-74
2021/03/05 08:48:29;;;;;;;41.53;26.98;;;12.90;99.90;;;;;;4959440;28;20023;-75
2021/03/05 08:51:19;;;;;;;36.90;26.77;;;13.10;99.90;;;;;;4954223;28;20031;-75
2021/03/05 08:53:58;;;;;;;37.30;28.55;;;13.10;99.90;;;;;;4946884;28;20034;-75
2021/03/05 08:56:27;;;;;;;40.00;28.38;;;13.10;99.90;;;;;;4963314;28;20562;-75
2021/03/05 08:59:00;;;;;;;38.90;30.25;;;13.20;99.90;;;;;;4953365;28;20038;-74
2021/03/05 09:01:46;;;;;;;42.35;29.25;;;13.10;99.90;;;;;;4962592;28;20022;-74
2021/03/05 09:04:14;;;;;;;47.10;30.27;;;13.10;99.90;;;;;;4959385;28;20533;-74
2021/03/05 09:06:54;;;;;;;36.38;28.48;;;13.30;99.90;;;;;;4957776;28;20030;-75
2021/03/05 09:09:23;;;;;;;38.45;31.73;;;13.30;99.90;;;;;;4954862;28;20090;-75
2021/03/05 09:12:08;;;;;;;40.38;30.88;;;13.40;99.90;;;;;;4960918;28;20397;-76
2021/03/05 09:14:34;;;;;;;43.65;30.40;;;13.40;99.90;;;;;;4957540;28;20390;-75
2021/03/05 09:17:02;;;;;;;41.50;31.15;;;13.30;99.90;;;;;;4957475;28;20023;-75
2021/03/05 09:19:40;;;;;;;32.78;28.90;;;13.40;99.90;;;;;;4965058;28;20027;-75
2021/03/05 09:22:26;;;;;;;40.65;30.38;;;13.40;99.90;;;;;;4965375;28;20028;-75
2021/03/05 09:24:59;;;;;;;32.58;28.58;;;13.40;99.90;;;;;;4971715;28;20045;-76
2021/03/05 09:27:29;;;;;;;46.03;29.45;;;13.60;99.90;;;;;;4962406;28;20037;-74
2021/03/05 09:29:56;;;;;;;39.90;28.92;;;13.50;99.90;;;;;;4964707;28;20015;-74
2021/03/05 09:32:23;;;;;;;35.72;28.65;;;13.40;99.90;;;;;;4962711;28;20027;-75
2021/03/05 09:35:00;;;;;;;35.67;29.77;;;13.40;99.90;;;;;;4973438;28;20039;-74
2021/03/05 09:37:28;;;;;;;39.75;28.45;;;13.50;99.90;;;;;;4962117;28;20031;-75
2021/03/05 09:39:58;;;;;;;33.13;29.48;;;13.70;99.90;;;;;;4956008;28;20038;-74
2021/03/05 09:42:42;;;;;;;41.58;33.13;;;13.80;99.90;;;;;;4963733;28;20070;-75
2021/03/05 09:45:09;;;;;;;45.55;33.03;;;14.10;99.90;;;;;;4937402;29;20103;-75
2021/03/05 09:47:48;;;;;;;40.97;32.95;;;14.30;99.90;;;;;;4963058;28;20034;-78
2021/03/05 09:50:22;;;;;;;38.10;33.42;;;14.30;99.90;;;;;;4961585;28;20026;-75
2021/03/05 09:52:49;;;;;;;41.65;33.58;;;14.20;99.90;;;;;;4960802;28;20023;-75
2021/03/05 09:55:29;;;;;;;41.88;33.22;;;14.30;99.90;;;;;;4964009;28;20034;-76
2021/03/05 09:58:08;;;;;;;51.38;36.60;;;14.10;99.90;;;;;;4964931;28;20038;-76
2021/03/05 10:00:35;;;;;;;50.50;36.50;;;14.00;99.90;;;;;;4947152;28;20033;-77
2021/03/05 10:03:12;;;;;;;51.55;37.05;;;13.90;99.90;;;;;;4951975;28;20198;-75
2021/03/05 10:05:40;;;;;;;45.35;34.53;;;13.90;99.90;;;;;;4950078;28;20042;-74
2021/03/05 10:08:09;;;;;;;42.75;37.30;;;13.90;99.90;;;;;;4954679;28;20024;-75
2021/03/05 10:10:58;;;;;;;44.63;37.33;;;13.90;99.90;;;;;;4960633;28;20034;-75
2021/03/05 10:13:46;;;;;;;46.28;37.70;;;13.90;99.90;;;;;;4957177;28;20450;-75
2021/03/05 10:16:14;;;;;;;43.60;36.45;;;13.90;99.90;;;;;;4955606;28;20042;-75
2021/03/05 10:18:43;;;;;;;43.90;38.00;;;14.00;99.90;;;;;;4958085;28;20023;-75
2021/03/05 10:21:13;;;;;;;45.88;37.83;;;14.10;99.90;;;;;;4959705;28;20037;-75
2021/03/05 10:23:41;;;;;;;47.85;38.40;;;14.10;99.90;;;;;;4940075;28;20047;-75
2021/03/05 10:26:18;;;;;;;55.28;41.25;;;14.20;99.90;;;;;;4955130;28;20046;-76
2021/03/05 10:28:46;;;;;;;49.15;39.67;;;14.30;99.90;;;;;;4952933;28;20122;-76
2021/03/05 10:31:19;;;;;;;51.47;42.28;;;14.40;99.90;;;;;;4963816;28;20047;-75
2021/03/05 10:33:45;;;;;;;53.28;40.20;;;14.40;99.90;;;;;;4968929;28;20150;-75
2021/03/05 10:36:13;;;;;;;46.50;41.00;;;14.50;99.90;;;;;;4955277;29;20042;-75
2021/03/05 10:38:40;;;;;;;50.35;41.30;;;14.60;99.90;;;;;;4968499;28;20026;-75
2021/03/05 10:41:07;;;;;;;51.33;42.50;;;14.70;99.90;;;;;;4952760;28;20022;-76
2021/03/05 10:43:38;;;;;;;48.97;38.83;;;14.90;99.90;;;;;;4964305;28;20106;-75
2021/03/05 10:46:05;;;;;;;54.92;43.28;;;14.90;99.90;;;;;;4963378;28;20027;-76
2021/03/05 10:48:31;;;;;;;48.28;42.75;;;15.00;99.90;;;;;;4964071;28;20034;-76
2021/03/05 10:50:57;;;;;;;54.13;42.72;;;14.90;99.90;;;;;;4943710;28;20521;-76
2021/03/05 10:53:22;;;;;;;59.53;41.03;;;14.90;99.90;;;;;;4961378;28;20433;-75
2021/03/05 10:55:48;;;;;;;43.63;38.58;;;15.00;99.90;;;;;;4966315;28;20107;-75
2021/03/05 10:58:14;;;;;;;52.65;39.65;;;15.10;99.90;;;;;;4969928;28;20034;-75
2021/03/05 11:00:41;;;;;;;47.75;39.85;;;15.10;99.90;;;;;;4966363;28;20106;-75
2021/03/05 11:03:07;;;;;;;46.65;41.15;;;15.20;99.90;;;;;;4962586;28;20022;-76
2021/03/05 11:05:33;;;;;;;56.03;41.85;;;15.30;99.90;;;;;;4964041;28;20528;-76
2021/03/05 11:07:58;;;;;;;59.60;43.83;;;15.50;99.90;;;;;;4967150;28;20078;-75
2021/03/05 11:10:24;;;;;;;56.03;42.60;;;15.60;99.90;;;;;;4966747;28;20523;-75
2021/03/05 11:12:50;;;;;;;54.65;42.97;;;15.50;99.90;;;;;;4961857;28;20537;-75
2021/03/05 11:15:17;;;;;;;46.03;41.08;;;15.40;99.90;;;;;;4959437;28;20509;-75
2021/03/05 11:17:44;;;;;;;49.88;42.85;;;15.20;99.90;;;;;;4960401;28;20019;-76
2021/03/05 11:20:11;;;;;;;58.75;44.15;;;15.10;99.90;;;;;;4968426;28;20373;-75
2021/03/05 11:22:37;;;;;;;53.83;44.15;;;14.90;99.90;;;;;;4957439;28;20046;-75
2021/03/05 11:25:05;;;;;;;55.88;46.55;;;14.90;99.90;;;;;;4961036;28;20518;-75
2021/03/05 11:27:34;;;;;;;55.20;45.33;;;14.90;99.90;;;;;;4961584;28;20070;-75
2021/03/05 11:30:00;;;;;;;51.67;44.70;;;15.10;99.90;;;;;;4961523;28;20015;-75
2021/03/05 11:32:26;;;;;;;53.88;47.60;;;15.10;99.90;;;;;;4949561;28;20497;-75
2021/03/05 11:34:51;;;;;;;60.70;48.28;;;15.10;99.90;;;;;;4965201;28;20039;-75
2021/03/05 11:37:17;;;;;;;58.42;48.50;;;15.00;99.90;;;;;;4973243;28;20440;-75
2021/03/05 11:39:43;;;;;;;64.55;47.08;;;14.90;99.90;;;;;;4961865;28;20015;-74
2021/03/05 11:42:09;;;;;;;63.92;47.55;;;14.90;99.90;;;;;;4956665;28;20114;-76
2021/03/05 11:44:35;;;;;;;59.35;48.03;;;14.80;99.90;;;;;;4961854;28;20038;-76
2021/03/05 11:47:01;;;;;;;52.63;42.92;;;14.60;99.90;;;;;;4947809;28;20063;-76
2021/03/05 11:49:27;;;;;;;62.92;47.50;;;14.30;99.90;;;;;;4960160;28;20035;-76
2021/03/05 11:51:52;;;;;;;59.83;46.45;;;13.80;99.90;;;;;;4960474;28;20078;-76
2021/03/05 11:54:18;;;;;;;57.08;46.20;;;13.40;99.90;;;;;;4965034;28;20667;-76
2021/03/05 11:56:44;;;;;;;55.58;49.58;;;13.20;99.90;;;;;;4963735;28;20031;-76
2021/03/05 11:59:10;;;;;;;60.55;48.20;;;13.00;99.90;;;;;;4955992;29;20086;-76
2021/03/05 12:01:36;;;;;;;59.20;46.40;;;13.00;99.90;;;;;;4964252;28;20524;-76
2021/03/05 12:04:02;;;;;;;59.58;51.33;;;12.80;99.90;;;;;;4966053;28;20044;-74
2021/03/05 12:06:28;;;;;;;65.82;51.80;;;12.60;99.90;;;;;;4954895;28;20031;-75
2021/03/05 12:08:53;;;;;;;67.32;54.00;;;12.70;99.90;;;;;;4968214;28;20393;-75
2021/03/05 12:11:20;;;;;;;65.90;52.95;;;12.70;99.90;;;;;;4961938;28;20066;-76
2021/03/05 12:13:46;;;;;;;64.03;50.22;;;12.80;99.90;;;;;;4958221;28;20118;-76
2021/03/05 12:16:12;;;;;;;60.60;51.17;;;12.90;99.90;;;;;;4961336;28;20062;-76
2021/03/05 12:18:38;;;;;;;59.92;50.42;;;13.10;99.90;;;;;;4938628;28;20107;-75
2021/03/05 12:21:04;;;;;;;59.35;52.85;;;13.20;99.90;;;;;;4966593;28;20022;-77
2021/03/05 12:23:31;;;;;;;64.38;52.05;;;13.30;99.90;;;;;;4964937;28;20031;-76
2021/03/05 12:26:00;;;;;;;70.32;52.33;;;13.20;99.90;;;;;;4967738;28;20516;-78
2021/03/05 12:28:26;;;;;;;58.90;52.47;;;13.20;99.90;;;;;;4969505;28;20023;-79
2021/03/05 12:30:52;;;;;;;58.53;52.35;;;13.50;99.90;;;;;;4965074;28;20032;-77
2021/03/05 12:33:18;;;;;;;62.58;52.47;;;13.60;99.90;;;;;;4968214;28;20137;-78
2021/03/05 12:35:44;;;;;;;63.28;54.28;;;13.80;99.90;;;;;;4963514;28;20054;-78
2021/03/05 12:38:10;;;;;;;67.10;56.88;;;14.00;99.90;;;;;;4970176;28;20039;-78
2021/03/05 12:40:36;;;;;;;68.18;57.88;;;14.00;99.90;;;;;;4956867;28;20059;-78
2021/03/05 12:43:02;;;;;;;66.18;57.15;;;14.10;99.90;;;;;;4965869;28;20059;-78
2021/03/05 12:45:28;;;;;;;75.13;60.90;;;14.40;99.90;;;;;;4965388;28;20094;-77